Time;durP1;ratioP1;P1;durP2;ratioP2;P2;SDS_P1;SDS_P2;PMS_P1;PMS_P2;Temp;Humidity;BMP_temperature;BMP_pressure;BME280_temperature;BME280_humidity;BME280_pressure;Samples;Min_cycle;Max_cycle;Signal;HPM_P1;HPM_P2
2022/01/04 00:00:09;;;;;;;23.80;3.45;;;;;;;;;;5074931;28;20039;-61
2022/01/04 00:02:35;;;;;;;23.90;3.92;;;;;;;;;;5072817;28;20487;-62
2022/01/04 00:05:01;;;;;;;29.23;4.38;;;;;;;;;;5074594;28;20051;-61
2022/01/04 00:07:27;;;;;;;29.65;3.80;;;;;;;;;;5076343;28;20040;-61
2022/01/04 00:09:54;;;;;;;24.67;4.70;;;;;;;;;;5059223;28;20459;-62
2022/01/04 00:15:05;;;;;;;26.38;4.55;;;;;;;;;;5077508;28;20043;-62
2022/01/04 00:17:32;;;;;;;20.65;4.75;;;;;;;;;;5081329;28;20118;-62
2022/01/04 00:19:58;;;;;;;32.88;5.22;;;;;;;;;;5075619;28;20051;-62
2022/01/04 00:22:24;;;;;;;28.95;5.75;;;;;;;;;;5081693;28;20038;-62
2022/01/04 00:24:50;;;;;;;34.90;5.72;;;;;;;;;;5077264;28;20130;-63
2022/01/04 00:27:16;;;;;;;30.30;5.55;;;;;;;;;;5076139;28;20039;-63
2022/01/04 00:29:42;;;;;;;30.85;6.05;;;;;;;;;;5076555;28;20035;-62
2022/01/04 00:32:09;;;;;;;32.60;6.03;;;;;;;;;;5083372;28;20197;-62
2022/01/04 00:34:35;;;;;;;30.88;5.90;;;;;;;;;;5080531;28;20044;-62
2022/01/04 00:37:01;;;;;;;28.05;5.57;;;;;;;;;;5083126;28;20044;-62
2022/01/04 00:39:27;;;;;;;36.58;6.28;;;;;;;;;;5061466;28;20085;-61
2022/01/04 00:41:53;;;;;;;28.95;5.95;;;;;;;;;;5061415;28;20051;-62
2022/01/04 00:44:19;;;;;;;35.55;6.70;;;;;;;;;;5078552;28;20492;-62
2022/01/04 00:46:46;;;;;;;36.60;7.32;;;;;;;;;;5061926;28;20054;-62
2022/01/04 00:49:12;;;;;;;33.50;6.68;;;;;;;;;;5078095;28;20067;-62
2022/01/04 00:51:42;;;;;;;31.88;6.25;;;;;;;;;;5058050;28;20219;-62
2022/01/04 00:54:09;;;;;;;32.63;6.70;;;;;;;;;;5078540;28;20031;-63
2022/01/04 00:56:36;;;;;;;32.58;7.28;;;;;;;;;;5058353;28;20493;-62
2022/01/04 00:59:02;;;;;;;33.60;7.38;;;;;;;;;;5058561;28;20105;-63
2022/01/04 01:01:29;;;;;;;30.65;6.90;;;;;;;;;;5078026;28;20047;-62
2022/01/04 01:03:55;;;;;;;28.45;6.43;;;;;;;;;;5083933;28;20467;-63
2022/01/04 01:06:22;;;;;;;33.35;6.57;;;;;;;;;;5076309;28;20117;-63
2022/01/04 01:08:48;;;;;;;31.30;6.40;;;;;;;;;;5076883;28;20055;-62
2022/01/04 01:11:14;;;;;;;35.60;6.72;;;;;;;;;;5061454;28;20046;-63
2022/01/04 01:13:40;;;;;;;36.97;6.30;;;;;;;;;;5072915;28;20075;-63
2022/01/04 01:16:07;;;;;;;32.17;6.88;;;;;;;;;;5065269;28;20055;-63
2022/01/04 01:18:33;;;;;;;39.35;7.68;;;;;;;;;;5074410;28;20039;-62
2022/01/04 01:21:00;;;;;;;30.17;7.07;;;;;;;;;;5077261;28;20071;-63
2022/01/04 01:23:26;;;;;;;34.70;6.97;;;;;;;;;;5066054;28;20392;-63
2022/01/04 01:25:52;;;;;;;36.17;7.65;;;;;;;;;;5060043;28;20036;-63
2022/01/04 01:28:19;;;;;;;36.42;8.05;;;;;;;;;;5074818;28;20038;-63
2022/01/04 01:30:45;;;;;;;36.83;8.68;;;;;;;;;;5060262;28;20035;-63
2022/01/04 01:33:11;;;;;;;41.38;9.18;;;;;;;;;;5078085;28;20067;-63
2022/01/04 01:35:38;;;;;;;32.33;8.43;;;;;;;;;;5097971;28;20031;-62
2022/01/04 01:38:04;;;;;;;37.42;8.70;;;;;;;;;;5074642;28;20071;-63
2022/01/04 01:40:31;;;;;;;37.85;8.88;;;;;;;;;;5080805;28;20069;-63
2022/01/04 01:42:57;;;;;;;38.55;9.45;;;;;;;;;;5086185;28;20423;-62
2022/01/04 01:45:24;;;;;;;35.28;9.50;;;;;;;;;;5057570;28;20067;-63
2022/01/04 01:47:51;;;;;;;43.13;10.18;;;;;;;;;;5097922;28;20369;-63
2022/01/04 01:50:17;;;;;;;37.53;9.65;;;;;;;;;;5059203;28;20478;-63
2022/01/04 01:52:45;;;;;;;40.33;10.30;;;;;;;;;;5056078;28;20036;-63
2022/01/04 01:55:12;;;;;;;36.03;8.55;;;;;;;;;;5095971;28;20039;-63
2022/01/04 01:57:38;;;;;;;42.55;9.93;;;;;;;;;;5064772;28;20096;-63
2022/01/04 02:00:06;;;;;;;38.47;10.02;;;;;;;;;;5079323;28;20126;-63
2022/01/04 02:02:32;;;;;;;40.47;10.35;;;;;;;;;;5076948;28;20043;-63
2022/01/04 02:04:58;;;;;;;39.95;9.75;;;;;;;;;;5096032;28;20047;-62
2022/01/04 02:07:25;;;;;;;34.25;9.38;;;;;;;;;;5079642;28;20043;-61
2022/01/04 02:10:03;;;;;;;39.53;10.63;;;;;;;;;;5061999;28;20497;-62
2022/01/04 02:12:36;;;;;;;32.78;10.65;;;;;;;;;;5093849;28;20070;-61
2022/01/04 02:15:04;;;;;;;41.20;9.05;;;;;;;;;;5092545;28;20043;-63
2022/01/04 02:17:30;;;;;;;38.40;8.63;;;;;;;;;;5099162;28;20031;-62
2022/01/04 02:19:57;;;;;;;38.53;10.73;;;;;;;;;;5092125;28;20064;-62
2022/01/04 02:22:23;;;;;;;40.25;10.13;;;;;;;;;;5081270;28;20510;-63
2022/01/04 02:24:49;;;;;;;47.25;12.02;;;;;;;;;;5080202;28;20096;-61
2022/01/04 02:27:15;;;;;;;48.13;13.38;;;;;;;;;;5074635;28;20515;-63
2022/01/04 02:29:42;;;;;;;49.22;15.40;;;;;;;;;;5100171;28;20451;-63
2022/01/04 02:32:09;;;;;;;46.97;14.27;;;;;;;;;;5096274;28;20074;-63
2022/01/04 02:34:35;;;;;;;50.95;15.77;;;;;;;;;;5096508;28;20043;-63
2022/01/04 02:37:01;;;;;;;51.25;15.10;;;;;;;;;;5080980;28;20039;-63
2022/01/04 02:39:27;;;;;;;49.85;14.13;;;;;;;;;;5057078;28;20131;-62
2022/01/04 02:41:54;;;;;;;54.33;14.15;;;;;;;;;;5077952;28;20051;-63
2022/01/04 02:44:20;;;;;;;44.58;14.23;;;;;;;;;;5079178;28;20513;-63
2022/01/04 02:46:46;;;;;;;42.65;13.55;;;;;;;;;;5053155;28;20470;-63
2022/01/04 02:49:12;;;;;;;53.25;16.00;;;;;;;;;;5094375;28;20047;-64
2022/01/04 02:51:38;;;;;;;46.40;12.40;;;;;;;;;;5082171;28;20071;-63
2022/01/04 02:54:05;;;;;;;45.88;13.85;;;;;;;;;;5079654;28;20032;-63
2022/01/04 02:56:31;;;;;;;43.35;14.35;;;;;;;;;;5053937;28;20044;-62
2022/01/04 02:59:03;;;;;;;47.90;13.90;;;;;;;;;;5079752;28;20048;-63
2022/01/04 03:01:29;;;;;;;42.10;11.85;;;;;;;;;;5089280;28;20051;-62
2022/01/04 03:03:55;;;;;;;45.58;11.50;;;;;;;;;;5057302;28;20039;-61
2022/01/04 03:06:21;;;;;;;53.03;12.05;;;;;;;;;;5080475;28;20620;-62
2022/01/04 03:08:48;;;;;;;47.13;12.10;;;;;;;;;;5075610;28;20131;-61
2022/01/04 03:11:14;;;;;;;47.20;11.30;;;;;;;;;;5055662;28;20174;-61
2022/01/04 03:13:40;;;;;;;46.33;10.93;;;;;;;;;;5072275;28;20190;-61
2022/01/04 03:16:06;;;;;;;44.80;11.25;;;;;;;;;;5075464;28;20397;-62
2022/01/04 03:18:32;;;;;;;46.50;10.93;;;;;;;;;;5074032;28;20036;-62
2022/01/04 03:20:58;;;;;;;49.85;11.88;;;;;;;;;;5078209;28;20097;-62
2022/01/04 03:23:24;;;;;;;45.17;11.15;;;;;;;;;;5076672;28;20485;-61
2022/01/04 03:25:50;;;;;;;43.17;10.45;;;;;;;;;;5078587;28;20709;-62
2022/01/04 03:28:19;;;;;;;36.08;9.55;;;;;;;;;;5095271;28;20521;-61
2022/01/04 03:30:46;;;;;;;49.63;12.27;;;;;;;;;;5057671;28;20036;-62
2022/01/04 03:33:12;;;;;;;48.20;10.73;;;;;;;;;;5072349;28;20123;-61
2022/01/04 03:35:38;;;;;;;44.72;10.93;;;;;;;;;;5075456;28;20394;-61
2022/01/04 03:38:04;;;;;;;49.67;11.82;;;;;;;;;;5077361;28;20048;-61
2022/01/04 03:40:30;;;;;;;37.08;10.55;;;;;;;;;;5096252;28;20040;-61
2022/01/04 03:42:56;;;;;;;49.53;11.27;;;;;;;;;;5075436;28;20678;-61
2022/01/04 03:45:22;;;;;;;42.78;11.05;;;;;;;;;;5081385;28;20429;-61
2022/01/04 03:47:49;;;;;;;50.38;11.40;;;;;;;;;;5080951;28;20119;-61
2022/01/04 03:50:15;;;;;;;42.95;9.90;;;;;;;;;;5100334;28;20036;-61
2022/01/04 03:52:41;;;;;;;58.33;12.70;;;;;;;;;;5061260;28;20047;-63
2022/01/04 03:55:08;;;;;;;47.47;10.90;;;;;;;;;;5082988;28;20104;-62
2022/01/04 03:57:34;;;;;;;53.17;10.55;;;;;;;;;;5081551;28;20141;-61
2022/01/04 04:00:01;;;;;;;40.83;10.15;;;;;;;;;;5083752;28;20048;-61
2022/01/04 04:02:27;;;;;;;41.25;10.85;;;;;;;;;;5080270;28;20039;-62
2022/01/04 04:04:53;;;;;;;37.30;11.52;;;;;;;;;;5065560;28;20378;-61
2022/01/04 04:07:19;;;;;;;38.35;11.30;;;;;;;;;;5066726;28;20398;-61
2022/01/04 04:09:45;;;;;;;40.97;10.65;;;;;;;;;;5077854;28;20044;-62
2022/01/04 04:12:11;;;;;;;49.72;12.50;;;;;;;;;;5062640;28;20047;-61
2022/01/04 04:14:37;;;;;;;44.05;12.20;;;;;;;;;;5061284;28;20031;-62
2022/01/04 04:17:03;;;;;;;47.20;11.88;;;;;;;;;;5102925;28;20516;-62
2022/01/04 04:19:29;;;;;;;53.17;12.57;;;;;;;;;;5063101;28;20047;-63
2022/01/04 04:21:55;;;;;;;51.58;12.55;;;;;;;;;;5100029;28;20565;-63
2022/01/04 04:24:22;;;;;;;43.25;11.43;;;;;;;;;;5066311;28;21230;-61
2022/01/04 04:26:48;;;;;;;41.10;10.15;;;;;;;;;;5061910;28;20096;-61
2022/01/04 04:29:14;;;;;;;44.45;11.43;;;;;;;;;;5066806;28;20062;-61
2022/01/04 04:31:40;;;;;;;45.00;11.85;;;;;;;;;;5081296;28;20040;-61
2022/01/04 04:34:06;;;;;;;49.45;11.82;;;;;;;;;;5080238;28;20040;-61
2022/01/04 04:36:32;;;;;;;44.47;11.93;;;;;;;;;;5105572;28;20051;-61
2022/01/04 04:39:00;;;;;;;48.17;12.20;;;;;;;;;;5065618;28;20054;-62
2022/01/04 04:41:26;;;;;;;45.95;11.73;;;;;;;;;;5063409;28;20047;-60
2022/01/04 04:43:54;;;;;;;45.85;11.07;;;;;;;;;;5083106;28;20122;-61
2022/01/04 04:46:21;;;;;;;39.60;10.43;;;;;;;;;;5078728;28;20107;-61
2022/01/04 04:48:47;;;;;;;46.83;11.00;;;;;;;;;;5080571;28;20035;-62
2022/01/04 04:51:13;;;;;;;46.05;12.15;;;;;;;;;;5080729;28;20043;-61
2022/01/04 04:53:39;;;;;;;42.83;11.90;;;;;;;;;;5077643;28;20036;-61
2022/01/04 04:56:05;;;;;;;48.25;11.57;;;;;;;;;;5079793;28;20058;-62
2022/01/04 04:58:31;;;;;;;54.15;13.25;;;;;;;;;;5096352;28;20040;-61
2022/01/04 05:00:58;;;;;;;45.95;12.68;;;;;;;;;;5078760;28;20092;-61
2022/01/04 05:03:24;;;;;;;53.42;13.55;;;;;;;;;;5094671;28;20478;-61
2022/01/04 05:05:50;;;;;;;55.55;13.02;;;;;;;;;;5080704;28;20454;-61
2022/01/04 05:08:16;;;;;;;58.58;13.43;;;;;;;;;;5061824;28;20052;-61
2022/01/04 05:10:42;;;;;;;45.47;11.38;;;;;;;;;;5093814;28;20032;-61
2022/01/04 05:13:08;;;;;;;58.15;13.90;;;;;;;;;;5079847;28;20046;-62
2022/01/04 05:15:34;;;;;;;49.05;12.98;;;;;;;;;;5098085;28;20119;-63
2022/01/04 05:18:00;;;;;;;45.15;12.27;;;;;;;;;;5079582;28;20050;-62
2022/01/04 05:20:26;;;;;;;54.53;13.40;;;;;;;;;;5078840;28;20090;-62
2022/01/04 05:22:52;;;;;;;52.90;12.98;;;;;;;;;;5080887;28;20045;-62
2022/01/04 05:25:18;;;;;;;48.00;12.02;;;;;;;;;;5094140;28;20080;-62
2022/01/04 05:27:44;;;;;;;44.70;12.88;;;;;;;;;;5095964;28;20047;-62
2022/01/04 05:30:11;;;;;;;44.70;12.40;;;;;;;;;;5077434;28;20074;-62
2022/01/04 05:32:37;;;;;;;55.17;12.55;;;;;;;;;;5081407;28;20035;-62
2022/01/04 05:35:03;;;;;;;48.03;12.95;;;;;;;;;;5096616;28;20486;-62
2022/01/04 05:37:29;;;;;;;51.78;14.23;;;;;;;;;;5096383;28;20036;-62
2022/01/04 05:39:55;;;;;;;51.92;13.07;;;;;;;;;;5077738;28;20055;-64
2022/01/04 05:42:21;;;;;;;44.92;13.43;;;;;;;;;;5084300;28;20052;-62
2022/01/04 05:44:47;;;;;;;47.78;13.98;;;;;;;;;;5076293;28;20493;-62
2022/01/04 05:47:13;;;;;;;49.58;13.75;;;;;;;;;;5055957;28;20127;-62
2022/01/04 05:49:39;;;;;;;52.78;15.63;;;;;;;;;;5075471;28;20067;-61
2022/01/04 05:52:06;;;;;;;52.40;14.57;;;;;;;;;;5094764;28;20466;-62
2022/01/04 05:54:32;;;;;;;44.75;15.27;;;;;;;;;;5079436;28;20043;-62
2022/01/04 05:56:58;;;;;;;55.05;16.20;;;;;;;;;;5076728;28;20040;-62
2022/01/04 05:59:24;;;;;;;53.85;17.48;;;;;;;;;;5079528;28;20625;-62
2022/01/04 06:01:50;;;;;;;56.42;17.70;;;;;;;;;;5094619;28;20121;-62
2022/01/04 06:04:17;;;;;;;53.35;17.10;;;;;;;;;;5058620;28;20108;-62
2022/01/04 06:06:43;;;;;;;53.13;17.50;;;;;;;;;;5072898;28;20131;-64
2022/01/04 06:09:18;;;;;;;63.60;20.20;;;;;;;;;;5077421;28;20085;-64
2022/01/04 06:17:01;;;;;;;49.35;16.58;;;;;;;;;;5066760;28;20442;-62
2022/01/04 06:19:27;;;;;;;55.90;17.30;;;;;;;;;;5063973;28;20036;-62
2022/01/04 06:21:53;;;;;;;44.03;14.20;;;;;;;;;;5082663;28;20131;-63
2022/01/04 06:24:19;;;;;;;46.40;15.85;;;;;;;;;;5083544;28;20055;-62
2022/01/04 06:26:45;;;;;;;51.25;17.90;;;;;;;;;;5074964;28;20054;-61
2022/01/04 06:29:12;;;;;;;53.85;18.15;;;;;;;;;;5075263;28;20063;-62
2022/01/04 06:31:39;;;;;;;52.20;17.25;;;;;;;;;;5097198;28;20040;-62
2022/01/04 06:34:05;;;;;;;56.25;19.33;;;;;;;;;;5079334;28;20051;-62
2022/01/04 06:36:32;;;;;;;41.88;15.70;;;;;;;;;;5058884;28;20040;-62
2022/01/04 06:38:58;;;;;;;46.50;16.17;;;;;;;;;;5092437;28;20089;-61
2022/01/04 06:41:24;;;;;;;56.00;19.05;;;;;;;;;;5057900;28;20047;-61
2022/01/04 06:43:50;;;;;;;55.03;19.60;;;;;;;;;;5096532;28;20396;-61
2022/01/04 06:46:16;;;;;;;59.33;19.63;;;;;;;;;;5098779;28;20044;-63
2022/01/04 06:48:43;;;;;;;34.90;13.80;;;;;;;;;;5081360;27;20035;-61
2022/01/04 06:51:09;;;;;;;39.63;16.50;;;;;;;;;;5120400;27;20100;-63
2022/01/04 06:53:36;;;;;;;33.28;11.70;;;;;;;;;;5085848;28;20040;-63
2022/01/04 06:56:02;;;;;;;19.77;5.25;;;;;;;;;;5097675;28;20036;-63
2022/01/04 06:58:29;;;;;;;9.15;1.70;;;;;;;;;;5103491;28;20072;-63
2022/01/04 07:00:55;;;;;;;7.72;0.82;;;;;;;;;;5102915;28;20047;-62
2022/01/04 07:03:21;;;;;;;10.43;1.20;;;;;;;;;;5099595;28;20075;-64
2022/01/04 07:05:47;;;;;;;9.05;0.65;;;;;;;;;;5082111;28;20058;-63
2022/01/04 07:08:13;;;;;;;11.02;1.05;;;;;;;;;;5076638;28;20501;-63
2022/01/04 07:10:39;;;;;;;15.52;2.17;;;;;;;;;;5095615;28;20520;-64
2022/01/04 07:13:05;;;;;;;12.30;1.20;;;;;;;;;;5096222;28;20047;-64
2022/01/04 07:15:31;;;;;;;15.10;2.10;;;;;;;;;;5075516;28;20040;-63
2022/01/04 07:17:57;;;;;;;20.15;2.63;;;;;;;;;;5091302;28;20051;-63
2022/01/04 07:20:24;;;;;;;28.40;7.53;;;;;;;;;;5073545;28;20130;-63
2022/01/04 07:22:50;;;;;;;33.00;8.38;;;;;;;;;;5086303;28;20035;-63
2022/01/04 07:25:16;;;;;;;21.60;6.97;;;;;;;;;;5064426;28;20126;-63
2022/01/04 07:27:42;;;;;;;16.38;2.67;;;;;;;;;;5061744;28;20044;-62
2022/01/04 07:30:09;;;;;;;9.02;1.13;;;;;;;;;;5063748;28;20122;-63
2022/01/04 07:32:35;;;;;;;5.13;0.60;;;;;;;;;;5079292;28;20050;-64
2022/01/04 07:35:04;;;;;;;7.30;1.05;;;;;;;;;;5076215;28;20071;-63
2022/01/04 07:37:30;;;;;;;7.82;0.47;;;;;;;;;;5073307;28;20040;-63
2022/01/04 07:39:56;;;;;;;5.88;0.45;;;;;;;;;;5081293;28;20044;-63
2022/01/04 07:42:22;;;;;;;5.47;0.30;;;;;;;;;;5069321;28;20102;-63
2022/01/04 07:44:48;;;;;;;7.50;0.60;;;;;;;;;;5063767;28;20407;-64
2022/01/04 07:47:14;;;;;;;4.65;0.30;;;;;;;;;;5068109;28;20046;-63
2022/01/04 07:49:40;;;;;;;6.72;0.50;;;;;;;;;;5083732;28;20467;-63
2022/01/04 07:52:07;;;;;;;11.20;0.77;;;;;;;;;;5080431;28;20040;-63
2022/01/04 07:54:33;;;;;;;18.08;1.55;;;;;;;;;;5061848;28;20032;-63
2022/01/04 07:56:59;;;;;;;13.27;0.90;;;;;;;;;;5078247;28;20127;-62
2022/01/04 07:59:29;;;;;;;9.38;0.90;;;;;;;;;;5096381;28;20462;-63
2022/01/04 08:01:55;;;;;;;9.55;0.90;;;;;;;;;;5100040;28;20047;-62
2022/01/04 08:04:21;;;;;;;8.27;0.80;;;;;;;;;;5080047;28;20051;-62
2022/01/04 08:06:47;;;;;;;12.10;1.15;;;;;;;;;;5071403;28;20079;-63
2022/01/04 08:09:13;;;;;;;11.88;0.95;;;;;;;;;;5083200;28;20052;-63
2022/01/04 08:11:40;;;;;;;8.48;0.85;;;;;;;;;;5082633;28;20036;-63
2022/01/04 08:14:06;;;;;;;13.73;1.08;;;;;;;;;;5070604;28;20028;-63
2022/01/04 08:16:32;;;;;;;15.85;1.58;;;;;;;;;;5062840;28;20040;-62
2022/01/04 08:18:58;;;;;;;13.65;1.55;;;;;;;;;;5075555;28;20494;-63
2022/01/04 08:21:24;;;;;;;9.95;0.93;;;;;;;;;;5070820;28;20051;-63
2022/01/04 08:23:50;;;;;;;14.57;2.13;;;;;;;;;;5069256;28;20101;-63
2022/01/04 08:26:16;;;;;;;13.60;1.17;;;;;;;;;;5061310;28;20165;-62
2022/01/04 08:28:42;;;;;;;11.85;1.35;;;;;;;;;;5083704;28;20036;-63
2022/01/04 08:31:08;;;;;;;13.40;1.80;;;;;;;;;;5080277;28;20662;-62
2022/01/04 08:33:34;;;;;;;15.23;2.80;;;;;;;;;;5086323;28;20517;-62
2022/01/04 08:36:00;;;;;;;21.17;3.60;;;;;;;;;;5063871;28;20063;-62
2022/01/04 08:38:27;;;;;;;25.23;4.07;;;;;;;;;;5062819;28;20086;-63
2022/01/04 08:40:53;;;;;;;20.75;4.93;;;;;;;;;;5081554;28;20059;-62
2022/01/04 08:43:19;;;;;;;21.23;4.38;;;;;;;;;;5100532;28;20148;-63
2022/01/04 08:45:45;;;;;;;28.15;5.88;;;;;;;;;;5061764;28;20145;-62
2022/01/04 08:48:11;;;;;;;24.92;4.55;;;;;;;;;;5094210;28;20153;-62
2022/01/04 08:50:37;;;;;;;27.30;5.15;;;;;;;;;;5081074;28;20380;-62
2022/01/04 08:53:06;;;;;;;33.05;5.57;;;;;;;;;;5099187;28;20043;-63
2022/01/04 08:55:33;;;;;;;30.15;6.03;;;;;;;;;;5079227;28;20044;-64
2022/01/04 08:57:59;;;;;;;25.83;4.43;;;;;;;;;;5063173;28;20048;-63
2022/01/04 09:00:25;;;;;;;29.45;5.80;;;;;;;;;;5084113;28;20389;-63
2022/01/04 09:02:51;;;;;;;23.30;4.90;;;;;;;;;;5088003;28;20509;-63
2022/01/04 09:05:17;;;;;;;15.85;2.88;;;;;;;;;;5070303;28;20521;-63
2022/01/04 09:07:46;;;;;;;13.68;1.80;;;;;;;;;;5084121;28;20126;-63
2022/01/04 09:10:12;;;;;;;12.45;1.13;;;;;;;;;;5098761;28;20075;-63
2022/01/04 09:12:48;;;;;;;11.82;1.00;;;;;;;;;;5081045;28;20130;-62
2022/01/04 09:15:56;;;;;;;13.77;1.23;;;;;;;;;;5054946;28;20544;-63
2022/01/04 09:21:05;;;;;;;11.95;0.43;;;;;;;;;;5105345;28;20112;-63
2022/01/04 09:23:31;;;;;;;7.90;0.32;;;;;;;;;;5083052;28;20489;-63
2022/01/04 09:25:57;;;;;;;5.07;0.20;;;;;;;;;;5109347;28;20043;-63
2022/01/04 09:28:24;;;;;;;7.32;0.30;;;;;;;;;;5085577;28;20036;-63
2022/01/04 09:30:51;;;;;;;5.28;0.20;;;;;;;;;;5088889;28;20397;-63
2022/01/04 09:33:17;;;;;;;8.05;0.20;;;;;;;;;;5082990;28;20542;-62
2022/01/04 09:35:44;;;;;;;11.93;0.40;;;;;;;;;;5084825;28;20039;-62
2022/01/04 09:38:10;;;;;;;7.65;0.35;;;;;;;;;;5084030;28;20044;-64
2022/01/04 09:40:37;;;;;;;8.68;0.30;;;;;;;;;;5098551;28;20073;-63
2022/01/04 09:43:04;;;;;;;9.15;0.30;;;;;;;;;;5086271;28;20507;-62
2022/01/04 09:45:30;;;;;;;9.77;0.40;;;;;;;;;;5087186;28;20055;-63
2022/01/04 09:47:57;;;;;;;13.70;0.65;;;;;;;;;;5076317;28;20040;-63
2022/01/04 09:50:23;;;;;;;11.73;0.75;;;;;;;;;;5084407;28;20145;-62
2022/01/04 09:52:49;;;;;;;13.35;0.80;;;;;;;;;;5101607;28;20040;-63
2022/01/04 09:55:16;;;;;;;16.75;0.85;;;;;;;;;;5106545;28;20031;-63
2022/01/04 09:57:43;;;;;;;13.68;1.10;;;;;;;;;;5081859;28;20144;-62
2022/01/04 10:00:12;;;;;;;14.05;0.55;;;;;;;;;;5078353;28;20494;-62
2022/01/04 10:02:38;;;;;;;8.57;0.35;;;;;;;;;;5091546;28;20119;-64
2022/01/04 10:05:14;;;;;;;17.17;0.73;;;;;;;;;;5080043;28;20423;-62
2022/01/04 10:07:41;;;;;;;14.40;0.60;;;;;;;;;;5086715;28;20044;-63
2022/01/04 10:10:10;;;;;;;7.85;0.65;;;;;;;;;;5103155;28;20059;-63
2022/01/04 10:12:48;;;;;;;5.97;0.30;;;;;;;;;;5093288;28;20512;-62
2022/01/04 10:15:28;;;;;;;4.45;0.20;;;;;;;;;;5088473;28;20460;-63
2022/01/04 10:17:57;;;;;;;5.15;0.20;;;;;;;;;;5087141;28;20058;-63
2022/01/04 10:20:23;;;;;;;5.30;0.17;;;;;;;;;;5091049;28;20036;-62
2022/01/04 10:22:50;;;;;;;9.02;0.40;;;;;;;;;;5104858;28;20043;-62
2022/01/04 10:25:19;;;;;;;8.02;0.50;;;;;;;;;;5071882;28;20086;-62
2022/01/04 10:27:49;;;;;;;3.88;0.20;;;;;;;;;;5077913;28;20044;-63
2022/01/04 10:30:16;;;;;;;6.75;0.20;;;;;;;;;;5094968;28;20032;-63
2022/01/04 10:32:57;;;;;;;3.22;0.20;;;;;;;;;;5100016;28;20039;-62
2022/01/04 10:35:24;;;;;;;5.07;0.20;;;;;;;;;;5073093;28;20046;-62
2022/01/04 10:37:50;;;;;;;7.47;0.30;;;;;;;;;;5064369;28;20071;-62
2022/01/04 10:40:16;;;;;;;4.30;0.20;;;;;;;;;;5080305;28;20430;-62
2022/01/04 10:42:42;;;;;;;3.78;0.20;;;;;;;;;;5077285;28;20036;-63
2022/01/04 10:45:21;;;;;;;3.50;0.10;;;;;;;;;;5084518;28;20039;-62
2022/01/04 10:47:47;;;;;;;7.57;0.20;;;;;;;;;;5103379;28;20047;-62
2022/01/04 10:50:13;;;;;;;6.28;0.20;;;;;;;;;;5073750;28;20384;-63
2022/01/04 10:52:42;;;;;;;3.25;0.20;;;;;;;;;;5072316;28;20442;-63
2022/01/04 10:55:15;;;;;;;5.97;0.30;;;;;;;;;;5089105;28;20039;-63
2022/01/04 10:57:41;;;;;;;6.22;0.30;;;;;;;;;;5071676;28;20315;-63
2022/01/04 11:00:19;;;;;;;7.32;0.30;;;;;;;;;;5087378;28;20035;-62
2022/01/04 11:02:45;;;;;;;3.95;0.40;;;;;;;;;;5102511;28;20097;-63
2022/01/04 11:05:20;;;;;;;6.53;0.30;;;;;;;;;;5092465;28;20046;-63
2022/01/04 11:07:59;;;;;;;6.55;0.25;;;;;;;;;;5074262;28;20487;-63
2022/01/04 11:10:27;;;;;;;6.43;0.25;;;;;;;;;;5094587;28;20091;-63
2022/01/04 11:12:54;;;;;;;6.45;0.38;;;;;;;;;;5067542;28;21487;-63
2022/01/04 11:15:20;;;;;;;2.30;0.15;;;;;;;;;;5074076;28;20118;-63
2022/01/04 11:17:47;;;;;;;5.28;0.68;;;;;;;;;;5062191;28;20398;-63
2022/01/04 11:20:13;;;;;;;7.75;0.20;;;;;;;;;;5080504;28;20126;-63
2022/01/04 11:22:40;;;;;;;6.47;0.32;;;;;;;;;;5084208;28;20044;-63
2022/01/04 11:25:07;;;;;;;10.00;0.43;;;;;;;;;;5100578;28;20157;-63
2022/01/04 11:27:35;;;;;;;13.95;0.30;;;;;;;;;;5073041;28;20477;-64
2022/01/04 11:30:04;;;;;;;8.80;0.57;;;;;;;;;;5082651;28;20150;-63
2022/01/04 11:32:32;;;;;;;5.03;0.20;;;;;;;;;;5072676;28;20036;-63
2022/01/04 11:35:12;;;;;;;6.68;0.40;;;;;;;;;;5083648;28;20035;-63
2022/01/04 11:37:41;;;;;;;6.45;0.20;;;;;;;;;;5085077;28;20066;-63
2022/01/04 11:40:26;;;;;;;8.80;0.40;;;;;;;;;;5076616;28;20413;-63
2022/01/04 11:42:52;;;;;;;7.40;0.30;;;;;;;;;;5071083;28;20104;-63
2022/01/04 11:45:37;;;;;;;6.28;0.63;;;;;;;;;;5073706;28;20119;-62
2022/01/04 11:48:03;;;;;;;5.15;0.30;;;;;;;;;;5076368;28;20059;-62
2022/01/04 11:50:36;;;;;;;5.60;0.20;;;;;;;;;;5075880;28;20079;-63
2022/01/04 11:53:09;;;;;;;4.47;0.30;;;;;;;;;;5074778;28;20561;-63
2022/01/04 11:55:37;;;;;;;5.13;0.25;;;;;;;;;;5075810;28;20151;-63
2022/01/04 11:58:03;;;;;;;6.43;0.30;;;;;;;;;;5082680;28;20070;-63
2022/01/04 12:00:29;;;;;;;6.00;0.55;;;;;;;;;;5101630;28;20501;-64
2022/01/04 12:03:24;;;;;;;10.23;0.50;;;;;;;;;;5074566;28;20044;-64
2022/01/04 12:05:56;;;;;;;6.95;0.32;;;;;;;;;;5061189;28;20047;-62
2022/01/04 12:08:24;;;;;;;12.50;0.47;;;;;;;;;;5060857;28;20077;-62
2022/01/04 12:10:56;;;;;;;7.63;0.63;;;;;;;;;;5076283;28;20048;-62
2022/01/04 12:13:23;;;;;;;9.57;0.50;;;;;;;;;;5082964;28;20040;-62
2022/01/04 12:15:54;;;;;;;6.65;0.30;;;;;;;;;;5100838;28;20043;-63
2022/01/04 12:18:23;;;;;;;17.23;0.68;;;;;;;;;;5086762;28;20533;-62
2022/01/04 12:20:50;;;;;;;14.95;0.73;;;;;;;;;;5082885;28;20092;-62
2022/01/04 12:23:37;;;;;;;10.25;0.50;;;;;;;;;;5078807;28;20134;-63
2022/01/04 12:26:12;;;;;;;11.35;0.50;;;;;;;;;;5101291;28;20115;-62
2022/01/04 12:28:59;;;;;;;3.45;0.30;;;;;;;;;;5079774;28;20044;-62
2022/01/04 12:31:29;;;;;;;7.38;0.30;;;;;;;;;;5067065;28;20508;-62
2022/01/04 12:33:57;;;;;;;9.38;0.30;;;;;;;;;;5060015;28;20032;-63
2022/01/04 12:36:26;;;;;;;10.07;0.45;;;;;;;;;;5075951;28;20122;-62
2022/01/04 12:38:53;;;;;;;12.40;0.50;;;;;;;;;;5081939;28;20090;-62
2022/01/04 12:41:19;;;;;;;8.00;0.47;;;;;;;;;;5082218;28;20043;-63
2022/01/04 12:43:47;;;;;;;8.98;0.50;;;;;;;;;;5082592;28;20059;-61
2022/01/04 12:46:14;;;;;;;8.50;0.43;;;;;;;;;;5076956;28;20063;-61
2022/01/04 12:48:44;;;;;;;5.35;0.43;;;;;;;;;;5098603;28;20036;-61
2022/01/04 12:51:29;;;;;;;9.02;0.50;;;;;;;;;;5091579;28;20032;-61
2022/01/04 12:53:57;;;;;;;6.70;0.40;;;;;;;;;;5081750;28;20040;-62
2022/01/04 12:56:23;;;;;;;5.40;0.35;;;;;;;;;;5089342;28;20049;-62
2022/01/04 12:58:49;;;;;;;10.80;0.80;;;;;;;;;;5106390;28;20115;-62
2022/01/04 13:01:22;;;;;;;5.60;0.30;;;;;;;;;;5083083;28;20400;-62
2022/01/04 13:03:48;;;;;;;6.15;0.47;;;;;;;;;;5063263;28;20032;-61
2022/01/04 13:06:15;;;;;;;10.80;0.63;;;;;;;;;;5082041;28;20101;-62
2022/01/04 13:08:41;;;;;;;6.05;0.40;;;;;;;;;;5088524;28;20111;-61
2022/01/04 13:11:08;;;;;;;6.65;0.75;;;;;;;;;;5069900;28;20127;-61
2022/01/04 13:13:34;;;;;;;7.90;0.40;;;;;;;;;;5077572;28;20027;-61
2022/01/04 13:16:19;;;;;;;7.25;0.60;;;;;;;;;;5077121;28;20595;-61
2022/01/04 13:18:45;;;;;;;9.25;0.60;;;;;;;;;;5090784;28;20095;-61
2022/01/04 13:21:12;;;;;;;7.22;0.40;;;;;;;;;;5069450;28;20056;-61
2022/01/04 13:23:38;;;;;;;8.07;0.40;;;;;;;;;;5088901;28;20071;-61
2022/01/04 13:26:04;;;;;;;10.07;0.60;;;;;;;;;;5082391;28;20073;-62
2022/01/04 13:28:32;;;;;;;8.93;0.50;;;;;;;;;;5085561;28;20045;-63
2022/01/04 13:30:59;;;;;;;4.95;0.80;;;;;;;;;;5081315;28;20565;-62
2022/01/04 13:33:25;;;;;;;9.77;0.40;;;;;;;;;;5100289;28;20074;-61
2022/01/04 13:35:53;;;;;;;6.88;0.43;;;;;;;;;;5098440;28;20078;-62
2022/01/04 13:38:21;;;;;;;6.95;0.50;;;;;;;;;;5102648;28;20127;-63
2022/01/04 13:40:48;;;;;;;9.50;0.40;;;;;;;;;;5075444;28;20042;-62
2022/01/04 13:43:16;;;;;;;6.95;0.47;;;;;;;;;;5066719;28;20040;-62
2022/01/04 13:45:50;;;;;;;10.65;0.73;;;;;;;;;;5108937;28;20131;-62
2022/01/04 13:48:29;;;;;;;9.18;0.77;;;;;;;;;;5080474;28;20122;-62
2022/01/04 13:51:05;;;;;;;13.05;1.02;;;;;;;;;;5075183;28;20039;-62
2022/01/04 13:53:52;;;;;;;7.30;0.55;;;;;;;;;;5085255;28;20097;-62
2022/01/04 13:56:23;;;;;;;13.25;0.70;;;;;;;;;;5097926;28;20075;-61
2022/01/04 13:58:49;;;;;;;8.20;0.60;;;;;;;;;;5065930;28;20078;-61
2022/01/04 14:01:29;;;;;;;7.53;0.80;;;;;;;;;;5103943;28;20046;-61
2022/01/04 14:03:56;;;;;;;4.35;0.20;;;;;;;;;;5073369;28;20123;-60
2022/01/04 14:06:31;;;;;;;5.20;0.40;;;;;;;;;;5085558;28;20035;-61
2022/01/04 14:08:57;;;;;;;7.65;0.50;;;;;;;;;;5075021;28;20505;-60
2022/01/04 14:11:28;;;;;;;10.13;0.70;;;;;;;;;;5090764;28;20040;-60
2022/01/04 14:13:54;;;;;;;10.23;0.50;;;;;;;;;;5072483;28;20075;-60
2022/01/04 14:16:21;;;;;;;8.85;0.65;;;;;;;;;;5092043;28;20079;-60
2022/01/04 14:19:07;;;;;;;7.25;0.43;;;;;;;;;;5083917;28;20082;-60
2022/01/04 14:21:35;;;;;;;7.63;0.50;;;;;;;;;;5090922;28;20497;-60
2022/01/04 14:24:01;;;;;;;7.80;0.80;;;;;;;;;;5083124;28;20043;-60
2022/01/04 14:26:28;;;;;;;7.97;0.60;;;;;;;;;;5110924;28;20050;-60
2022/01/04 14:28:55;;;;;;;6.80;0.30;;;;;;;;;;5088298;28;20115;-62
2022/01/04 14:31:21;;;;;;;4.93;0.50;;;;;;;;;;5076440;28;20043;-61
2022/01/04 14:33:47;;;;;;;7.85;0.50;;;;;;;;;;5097528;28;20035;-61
2022/01/04 14:36:13;;;;;;;11.63;0.60;;;;;;;;;;5081766;28;20047;-60
2022/01/04 14:38:39;;;;;;;7.72;0.40;;;;;;;;;;5079097;28;20066;-61
2022/01/04 14:41:05;;;;;;;7.30;0.50;;;;;;;;;;5062915;28;20047;-61
2022/01/04 14:43:31;;;;;;;9.77;0.70;;;;;;;;;;5102171;28;20399;-61